sensor_id;sensor_type;location;lat;lon;timestamp;pressure;altitude;pressure_sealevel;temperature;humidity
34931;BME280;21134;49.646;8.560;2022-09-25T00:01:35;100236.38;;;13.48;100.00
34931;BME280;21134;49.646;8.560;2022-09-25T00:04:03;100245.78;;;13.49;100.00
34931;BME280;21134;49.646;8.560;2022-09-25T00:06:30;100245.78;;;13.49;100.00
34931;BME280;21134;49.646;8.560;2022-09-25T00:08:58;100244.09;;;13.48;100.00
34931;BME280;21134;49.646;8.560;2022-09-25T00:11:29;100249.22;;;13.50;100.00
34931;BME280;21134;49.646;8.560;2022-09-25T00:13:57;100247.50;;;13.51;100.00
34931;BME280;21134;49.646;8.560;2022-09-25T00:16:26;100243.19;;;13.49;100.00
34931;BME280;21134;49.646;8.560;2022-09-25T00:18:53;100242.34;;;13.51;100.00
34931;BME280;21134;49.646;8.560;2022-09-25T00:21:38;100244.03;;;13.53;100.00
34931;BME280;21134;49.646;8.560;2022-09-25T00:24:06;100244.88;;;13.54;100.00
34931;BME280;21134;49.646;8.560;2022-09-25T00:26:36;100242.31;;;13.52;100.00
34931;BME280;21134;49.646;8.560;2022-09-25T00:29:04;100239.84;;;13.47;100.00
34931;BME280;21134;49.646;8.560;2022-09-25T00:31:32;100239.78;;;13.49;100.00
34931;BME280;21134;49.646;8.560;2022-09-25T00:34:00;100233.84;;;13.45;100.00
34931;BME280;21134;49.646;8.560;2022-09-25T00:36:28;100233.91;;;13.44;100.00
34931;BME280;21134;49.646;8.560;2022-09-25T00:38:54;100233.06;;;13.42;100.00
34931;BME280;21134;49.646;8.560;2022-09-25T00:41:23;100232.28;;;13.37;100.00
34931;BME280;21134;49.646;8.560;2022-09-25T00:43:54;100233.22;;;13.33;100.00
34931;BME280;21134;49.646;8.560;2022-09-25T00:46:22;100225.50;;;13.34;100.00
34931;BME280;21134;49.646;8.560;2022-09-25T00:48:54;100231.47;;;13.35;100.00
34931;BME280;21134;49.646;8.560;2022-09-25T00:51:25;100228.91;;;13.35;100.00
34931;BME280;21134;49.646;8.560;2022-09-25T00:53:54;100227.97;;;13.40;100.00
34931;BME280;21134;49.646;8.560;2022-09-25T00:56:22;100234.09;;;13.32;100.00
34931;BME280;21134;49.646;8.560;2022-09-25T00:58:51;100224.72;;;13.29;100.00
34931;BME280;21134;49.646;8.560;2022-09-25T01:01:17;100223.03;;;13.28;100.00
34931;BME280;21134;49.646;8.560;2022-09-25T01:03:44;100226.44;;;13.29;100.00
34931;BME280;21134;49.646;8.560;2022-09-25T01:06:12;100218.69;;;13.32;100.00
34931;BME280;21134;49.646;8.560;2022-09-25T01:08:39;100217.78;;;13.34;100.00
34931;BME280;21134;49.646;8.560;2022-09-25T01:11:07;100216.94;;;13.32;100.00
34931;BME280;21134;49.646;8.560;2022-09-25T01:13:34;100215.28;;;13.31;100.00
34931;BME280;21134;49.646;8.560;2022-09-25T01:16:09;100216.16;;;13.29;100.00
34931;BME280;21134;49.646;8.560;2022-09-25T01:18:57;100221.34;;;13.25;100.00
34931;BME280;21134;49.646;8.560;2022-09-25T01:21:33;100217.09;;;13.24;100.00
34931;BME280;21134;49.646;8.560;2022-09-25T01:24:27;100218.78;;;13.25;100.00
34931;BME280;21134;49.646;8.560;2022-09-25T01:27:24;100216.22;;;13.22;100.00
34931;BME280;21134;49.646;8.560;2022-09-25T01:30:04;100217.09;;;13.24;100.00
34931;BME280;21134;49.646;8.560;2022-09-25T01:32:35;100212.75;;;13.26;100.00
34931;BME280;21134;49.646;8.560;2022-09-25T01:35:11;100215.31;;;13.26;100.00
34931;BME280;21134;49.646;8.560;2022-09-25T01:37:42;100210.19;;;13.26;100.00
34931;BME280;21134;49.646;8.560;2022-09-25T01:40:15;100211.03;;;13.27;100.00
34931;BME280;21134;49.646;8.560;2022-09-25T01:42:47;100211.03;;;13.29;100.00
34931;BME280;21134;49.646;8.560;2022-09-25T01:45:19;100207.59;;;13.28;100.00
34931;BME280;21134;49.646;8.560;2022-09-25T01:47:48;100203.31;;;13.29;100.00
34931;BME280;21134;49.646;8.560;2022-09-25T01:50:21;100199.06;;;13.28;100.00
34931;BME280;21134;49.646;8.560;2022-09-25T01:52:52;100207.59;;;13.28;100.00
34931;BME280;21134;49.646;8.560;2022-09-25T01:55:26;100202.38;;;13.33;100.00
34931;BME280;21134;49.646;8.560;2022-09-25T01:57:59;100199.00;;;13.31;100.00
34931;BME280;21134;49.646;8.560;2022-09-25T02:00:29;100202.41;;;13.31;100.00
34931;BME280;21134;49.646;8.560;2022-09-25T02:03:06;100200.63;;;13.35;100.00
34931;BME280;21134;49.646;8.560;2022-09-25T02:05:40;100201.53;;;13.34;100.00
34931;BME280;21134;49.646;8.560;2022-09-25T02:08:12;100198.03;;;13.36;100.00
34931;BME280;21134;49.646;8.560;2022-09-25T02:10:42;100199.06;;;13.26;100.00
34931;BME280;21134;49.646;8.560;2022-09-25T02:13:13;100197.34;;;13.26;100.00
34931;BME280;21134;49.646;8.560;2022-09-25T02:15:46;100206.72;;;13.31;100.00
34931;BME280;21134;49.646;8.560;2022-09-25T02:18:16;100198.19;;;13.27;100.00
34931;BME280;21134;49.646;8.560;2022-09-25T02:21:13;100197.34;;;13.26;100.00
34931;BME280;21134;49.646;8.560;2022-09-25T02:23:48;100199.06;;;13.26;100.00
34931;BME280;21134;49.646;8.560;2022-09-25T02:26:23;100201.66;;;13.23;100.00
34931;BME280;21134;49.646;8.560;2022-09-25T02:28:51;100194.81;;;13.22;100.00
34931;BME280;21134;49.646;8.560;2022-09-25T02:31:21;100199.13;;;13.21;100.00
34931;BME280;21134;49.646;8.560;2022-09-25T02:33:48;100198.34;;;13.18;100.00
34931;BME280;21134;49.646;8.560;2022-09-25T02:36:16;100196.59;;;13.18;100.00
34931;BME280;21134;49.646;8.560;2022-09-25T02:38:44;100194.97;;;13.13;100.00
34931;BME280;21134;49.646;8.560;2022-09-25T02:41:17;100199.19;;;13.17;100.00
34931;BME280;21134;49.646;8.560;2022-09-25T02:43:53;100204.28;;;13.20;100.00
34931;BME280;21134;49.646;8.560;2022-09-25T02:46:29;100200.03;;;13.17;100.00
34931;BME280;21134;49.646;8.560;2022-09-25T02:49:03;100203.41;;;13.21;100.00
34931;BME280;21134;49.646;8.560;2022-09-25T02:51:35;100200.00;;;13.19;100.00
34931;BME280;21134;49.646;8.560;2022-09-25T02:54:09;100196.59;;;13.18;100.00
34931;BME280;21134;49.646;8.560;2022-09-25T02:56:41;100198.28;;;13.19;100.00
34931;BME280;21134;49.646;8.560;2022-09-25T02:59:14;100198.28;;;13.21;100.00
34931;BME280;21134;49.646;8.560;2022-09-25T03:01:46;100198.25;;;13.22;100.00
34931;BME280;21134;49.646;8.560;2022-09-25T03:04:13;100196.56;;;13.21;100.00
34931;BME280;21134;49.646;8.560;2022-09-25T03:06:42;100194.88;;;13.17;100.00
34931;BME280;21134;49.646;8.560;2022-09-25T03:09:09;100185.50;;;13.16;100.00
34931;BME280;21134;49.646;8.560;2022-09-25T03:11:37;100189.00;;;13.12;100.00
34931;BME280;21134;49.646;8.560;2022-09-25T03:14:05;100189.78;;;13.14;100.00
34931;BME280;21134;49.646;8.560;2022-09-25T03:16:36;100193.25;;;13.15;100.00
34931;BME280;21134;49.646;8.560;2022-09-25T03:19:06;100193.25;;;13.15;100.00
34931;BME280;21134;49.646;8.560;2022-09-25T03:21:32;100194.88;;;13.17;100.00
34931;BME280;21134;49.646;8.560;2022-09-25T03:23:59;100196.63;;;13.17;100.00
34931;BME280;21134;49.646;8.560;2022-09-25T03:26:26;100200.06;;;13.14;100.00
34931;BME280;21134;49.646;8.560;2022-09-25T03:28:53;100194.97;;;13.13;100.00
34931;BME280;21134;49.646;8.560;2022-09-25T03:31:19;100202.69;;;13.13;100.00
34931;BME280;21134;49.646;8.560;2022-09-25T03:33:46;100197.50;;;13.14;100.00
34931;BME280;21134;49.646;8.560;2022-09-25T03:36:16;100192.41;;;13.11;100.00
34931;BME280;21134;49.646;8.560;2022-09-25T03:38:44;100189.88;;;13.10;100.00
34931;BME280;21134;49.646;8.560;2022-09-25T03:41:13;100193.28;;;13.12;100.00
34931;BME280;21134;49.646;8.560;2022-09-25T03:43:40;100197.47;;;13.17;100.00
34931;BME280;21134;49.646;8.560;2022-09-25T03:46:09;100192.38;;;13.14;100.00
34931;BME280;21134;49.646;8.560;2022-09-25T03:48:36;100199.22;;;13.15;100.00
34931;BME280;21134;49.646;8.560;2022-09-25T03:51:04;100191.47;;;13.17;100.00
34931;BME280;21134;49.646;8.560;2022-09-25T03:53:32;100191.50;;;13.15;100.00
34931;BME280;21134;49.646;8.560;2022-09-25T03:55:59;100191.50;;;13.15;100.00
34931;BME280;21134;49.646;8.560;2022-09-25T03:58:26;100192.34;;;13.16;100.00
34931;BME280;21134;49.646;8.560;2022-09-25T04:00:54;100190.66;;;13.15;100.00
34931;BME280;21134;49.646;8.560;2022-09-25T04:03:22;100192.38;;;13.14;100.00
34931;BME280;21134;49.646;8.560;2022-09-25T04:05:49;100183.00;;;13.12;100.00
34931;BME280;21134;49.646;8.560;2022-09-25T04:08:15;100194.09;;;13.15;100.00
34931;BME280;21134;49.646;8.560;2022-09-25T04:10:43;100186.44;;;13.12;100.00
34931;BME280;21134;49.646;8.560;2022-09-25T04:13:09;100187.22;;;13.16;100.00
34931;BME280;21134;49.646;8.560;2022-09-25T04:15:37;100190.63;;;13.18;100.00
34931;BME280;21134;49.646;8.560;2022-09-25T04:18:04;100186.38;;;13.15;100.00
34931;BME280;21134;49.646;8.560;2022-09-25T04:20:31;100184.72;;;13.11;100.00
34931;BME280;21134;49.646;8.560;2022-09-25T04:22:57;100189.88;;;13.10;100.00
34931;BME280;21134;49.646;8.560;2022-09-25T04:25:24;100189.84;;;13.11;100.00
34931;BME280;21134;49.646;8.560;2022-09-25T04:27:52;100200.13;;;13.11;100.00
34931;BME280;21134;49.646;8.560;2022-09-25T04:30:20;100190.66;;;13.15;100.00
34931;BME280;21134;49.646;8.560;2022-09-25T04:32:47;100188.91;;;13.17;100.00
34931;BME280;21134;49.646;8.560;2022-09-25T04:35:31;100190.63;;;13.18;100.00
34931;BME280;21134;49.646;8.560;2022-09-25T04:37:58;100193.16;;;13.21;100.00
34931;BME280;21134;49.646;8.560;2022-09-25T04:40:24;100194.09;;;13.15;100.00
34931;BME280;21134;49.646;8.560;2022-09-25T04:42:55;100193.25;;;13.15;100.00
34931;BME280;21134;49.646;8.560;2022-09-25T04:45:22;100194.97;;;13.11;100.00
34931;BME280;21134;49.646;8.560;2022-09-25T04:47:51;100199.22;;;13.14;100.00
34931;BME280;21134;49.646;8.560;2022-09-25T04:50:17;100192.41;;;13.13;100.00
34931;BME280;21134;49.646;8.560;2022-09-25T04:52:43;100191.53;;;13.14;100.00
34931;BME280;21134;49.646;8.560;2022-09-25T04:55:10;100199.28;;;13.11;100.00
34931;BME280;21134;49.646;8.560;2022-09-25T04:57:36;100194.97;;;13.13;100.00
34931;BME280;21134;49.646;8.560;2022-09-25T05:00:06;100195.06;;;13.08;100.00
34931;BME280;21134;49.646;8.560;2022-09-25T05:02:33;100190.81;;;13.06;100.00
34931;BME280;21134;49.646;8.560;2022-09-25T05:04:59;100193.31;;;13.10;100.00
34931;BME280;21134;49.646;8.560;2022-09-25T05:07:26;100198.38;;;13.13;100.00
34931;BME280;21134;49.646;8.560;2022-09-25T05:09:52;100189.84;;;13.11;100.00
34931;BME280;21134;49.646;8.560;2022-09-25T05:12:19;100194.94;;;13.16;100.00
34931;BME280;21134;49.646;8.560;2022-09-25T05:14:46;100189.97;;;13.03;100.00
34931;BME280;21134;49.646;8.560;2022-09-25T05:17:13;100196.81;;;13.04;100.00
34931;BME280;21134;49.646;8.560;2022-09-25T05:19:40;100195.13;;;13.03;100.00
34931;BME280;21134;49.646;8.560;2022-09-25T05:22:06;100195.91;;;13.09;100.00
34931;BME280;21134;49.646;8.560;2022-09-25T05:24:33;100191.50;;;13.15;100.00
34931;BME280;21134;49.646;8.560;2022-09-25T05:26:59;100193.25;;;13.15;100.00
34931;BME280;21134;49.646;8.560;2022-09-25T05:29:26;100192.50;;;13.07;100.00
34931;BME280;21134;49.646;8.560;2022-09-25T05:31:52;100186.47;;;13.08;100.00
34931;BME280;21134;49.646;8.560;2022-09-25T05:34:21;100195.97;;;13.06;100.00
34931;BME280;21134;49.646;8.560;2022-09-25T05:36:49;100189.97;;;13.05;100.00
34931;BME280;21134;49.646;8.560;2022-09-25T05:39:16;100194.28;;;13.01;100.00
34931;BME280;21134;49.646;8.560;2022-09-25T05:41:43;100189.16;;;13.01;100.00
34931;BME280;21134;49.646;8.560;2022-09-25T05:44:09;100188.19;;;13.09;100.00
34931;BME280;21134;49.646;8.560;2022-09-25T05:46:36;100191.56;;;13.12;100.00
34931;BME280;21134;49.646;8.560;2022-09-25T05:49:03;100194.94;;;13.16;100.00
34931;BME280;21134;49.646;8.560;2022-09-25T05:51:31;100192.53;;;13.05;100.00
34931;BME280;21134;49.646;8.560;2022-09-25T05:53:58;100200.28;;;13.02;100.00
34931;BME280;21134;49.646;8.560;2022-09-25T05:56:25;100202.13;;;12.94;100.00
34931;BME280;21134;49.646;8.560;2022-09-25T05:58:52;100198.56;;;13.01;100.00
34931;BME280;21134;49.646;8.560;2022-09-25T06:01:18;100204.59;;;13.00;100.00
34931;BME280;21134;49.646;8.560;2022-09-25T06:03:45;100197.63;;;13.07;100.00
34931;BME280;21134;49.646;8.560;2022-09-25T06:06:11;100199.38;;;13.04;100.00
34931;BME280;21134;49.646;8.560;2022-09-25T06:08:39;100190.81;;;13.04;100.00
34931;BME280;21134;49.646;8.560;2022-09-25T06:11:06;100197.78;;;12.99;100.00
34931;BME280;21134;49.646;8.560;2022-09-25T06:13:33;100194.28;;;13.01;100.00
34931;BME280;21134;49.646;8.560;2022-09-25T06:16:02;100195.97;;;13.04;100.00
34931;BME280;21134;49.646;8.560;2022-09-25T06:18:30;100204.47;;;13.08;100.00
34931;BME280;21134;49.646;8.560;2022-09-25T06:21:01;100204.50;;;13.06;100.00
34931;BME280;21134;49.646;8.560;2022-09-25T06:23:28;100201.19;;;12.99;100.00
34931;BME280;21134;49.646;8.560;2022-09-25T06:26:00;100198.47;;;13.09;100.00
34931;BME280;21134;49.646;8.560;2022-09-25T06:28:27;100204.38;;;13.14;100.00
34931;BME280;21134;49.646;8.560;2022-09-25T06:30:53;100205.25;;;13.13;100.00
34931;BME280;21134;49.646;8.560;2022-09-25T06:33:20;100205.16;;;13.19;100.00
34931;BME280;21134;49.646;8.560;2022-09-25T06:35:47;100202.63;;;13.16;100.00
34931;BME280;21134;49.646;8.560;2022-09-25T06:38:15;100197.50;;;13.16;100.00
34931;BME280;21134;49.646;8.560;2022-09-25T06:40:42;100208.66;;;13.13;100.00
34931;BME280;21134;49.646;8.560;2022-09-25T06:43:11;100206.03;;;13.18;100.00
34931;BME280;21134;49.646;8.560;2022-09-25T06:45:38;100210.25;;;13.20;100.00
34931;BME280;21134;49.646;8.560;2022-09-25T06:48:06;100205.03;;;13.26;100.00
34931;BME280;21134;49.646;8.560;2022-09-25T06:50:38;100213.59;;;13.27;100.00
34931;BME280;21134;49.646;8.560;2022-09-25T06:53:05;100211.13;;;13.19;100.00
34931;BME280;21134;49.646;8.560;2022-09-25T06:55:31;100216.28;;;13.19;100.00
34931;BME280;21134;49.646;8.560;2022-09-25T06:57:59;100209.34;;;13.28;100.00
34931;BME280;21134;49.646;8.560;2022-09-25T07:00:27;100213.66;;;13.22;100.00
34931;BME280;21134;49.646;8.560;2022-09-25T07:02:53;100212.81;;;13.20;100.00
34931;BME280;21134;49.646;8.560;2022-09-25T07:05:40;100210.31;;;13.17;100.00
34931;BME280;21134;49.646;8.560;2022-09-25T07:08:06;100211.19;;;13.18;100.00
34931;BME280;21134;49.646;8.560;2022-09-25T07:10:33;100213.81;;;13.13;100.00
34931;BME280;21134;49.646;8.560;2022-09-25T07:12:59;100212.13;;;13.12;100.00
34931;BME280;21134;49.646;8.560;2022-09-25T07:15:27;100210.31;;;13.17;100.00
34931;BME280;21134;49.646;8.560;2022-09-25T07:17:54;100212.81;;;13.20;100.00
34931;BME280;21134;49.646;8.560;2022-09-25T07:20:20;100209.41;;;13.21;100.00
34931;BME280;21134;49.646;8.560;2022-09-25T07:22:47;100215.22;;;13.34;100.00
34931;BME280;21134;49.646;8.560;2022-09-25T07:25:13;100212.44;;;13.45;100.00
34931;BME280;21134;49.646;8.560;2022-09-25T07:27:40;100210.66;;;13.50;100.00
34931;BME280;21134;49.646;8.560;2022-09-25T07:30:08;100212.13;;;13.63;100.00
34931;BME280;21134;49.646;8.560;2022-09-25T07:32:36;100214.72;;;13.63;100.00
34931;BME280;21134;49.646;8.560;2022-09-25T07:35:02;100212.88;;;13.68;100.00
34931;BME280;21134;49.646;8.560;2022-09-25T07:37:29;100217.81;;;13.81;100.00
34931;BME280;21134;49.646;8.560;2022-09-25T07:39:56;100213.63;;;13.75;100.00
34931;BME280;21134;49.646;8.560;2022-09-25T07:42:22;100214.50;;;13.76;100.00
34931;BME280;21134;49.646;8.560;2022-09-25T07:44:49;100213.81;;;13.66;100.00
34931;BME280;21134;49.646;8.560;2022-09-25T07:47:15;100217.28;;;13.62;100.00
34931;BME280;21134;49.646;8.560;2022-09-25T07:49:45;100219.78;;;13.66;100.00
34931;BME280;21134;49.646;8.560;2022-09-25T07:52:11;100213.66;;;13.73;100.00
34931;BME280;21134;49.646;8.560;2022-09-25T07:54:38;100213.69;;;13.72;100.00
34931;BME280;21134;49.646;8.560;2022-09-25T07:57:05;100218.84;;;13.72;100.00
34931;BME280;21134;49.646;8.560;2022-09-25T07:59:31;100218.56;;;13.86;100.00
34931;BME280;21134;49.646;8.560;2022-09-25T08:01:58;100220.38;;;13.82;100.00
34931;BME280;21134;49.646;8.560;2022-09-25T08:04:24;100218.47;;;13.92;100.00
34931;BME280;21134;49.646;8.560;2022-09-25T08:06:52;100221.03;;;13.92;100.00
34931;BME280;21134;49.646;8.560;2022-09-25T08:09:18;100225.28;;;13.93;100.00
34931;BME280;21134;49.646;8.560;2022-09-25T08:11:45;100220.19;;;13.91;100.00
34931;BME280;21134;49.646;8.560;2022-09-25T08:14:11;100225.41;;;13.88;100.00
34931;BME280;21134;49.646;8.560;2022-09-25T08:16:40;100215.03;;;13.91;100.00
34931;BME280;21134;49.646;8.560;2022-09-25T08:19:07;100223.69;;;13.87;100.00
34931;BME280;21134;49.646;8.560;2022-09-25T08:21:33;100229.44;;;14.00;100.00
34931;BME280;21134;49.646;8.560;2022-09-25T08:24:02;100219.09;;;14.03;100.00
34931;BME280;21134;49.646;8.560;2022-09-25T08:26:28;100225.00;;;14.07;100.00
34931;BME280;21134;49.646;8.560;2022-09-25T08:28:56;100226.78;;;14.05;100.00
34931;BME280;21134;49.646;8.560;2022-09-25T08:31:24;100227.53;;;14.10;100.00
34931;BME280;21134;49.646;8.560;2022-09-25T08:33:50;100224.00;;;14.15;100.00
34931;BME280;21134;49.646;8.560;2022-09-25T08:36:18;100217.09;;;14.17;100.00
34931;BME280;21134;49.646;8.560;2022-09-25T08:38:45;100222.31;;;14.14;100.00
34931;BME280;21134;49.646;8.560;2022-09-25T08:41:15;100222.19;;;14.21;100.00
34931;BME280;21134;49.646;8.560;2022-09-25T08:43:46;100220.56;;;14.15;100.00
34931;BME280;21134;49.646;8.560;2022-09-25T08:46:20;100221.00;;;14.37;100.00
34931;BME280;21134;49.646;8.560;2022-09-25T08:49:06;100220.94;;;14.40;100.00
34931;BME280;21134;49.646;8.560;2022-09-25T08:51:36;100217.56;;;14.36;100.00
34931;BME280;21134;49.646;8.560;2022-09-25T08:54:04;100219.00;;;14.51;100.00
34931;BME280;21134;49.646;8.560;2022-09-25T08:56:33;100217.78;;;14.68;97.46
34931;BME280;21134;49.646;8.560;2022-09-25T08:59:03;100225.22;;;14.39;98.99
34931;BME280;21134;49.646;8.560;2022-09-25T09:01:42;100221.53;;;14.53;98.82
34931;BME280;21134;49.646;8.560;2022-09-25T09:04:16;100219.56;;;14.64;96.49
34931;BME280;21134;49.646;8.560;2022-09-25T09:06:45;100230.06;;;14.55;96.99
34931;BME280;21134;49.646;8.560;2022-09-25T09:09:16;100227.59;;;14.52;97.56
34931;BME280;21134;49.646;8.560;2022-09-25T09:11:48;100219.25;;;14.37;97.15
34931;BME280;21134;49.646;8.560;2022-09-25T09:14:18;100218.19;;;14.48;97.48
34931;BME280;21134;49.646;8.560;2022-09-25T09:16:51;100221.88;;;14.36;98.20
34931;BME280;21134;49.646;8.560;2022-09-25T09:19:20;100227.28;;;14.24;99.53
34931;BME280;21134;49.646;8.560;2022-09-25T09:21:52;100226.13;;;14.37;98.51
34931;BME280;21134;49.646;8.560;2022-09-25T09:24:26;100227.03;;;14.36;98.10
34931;BME280;21134;49.646;8.560;2022-09-25T09:27:18;100233.09;;;14.32;98.76
34931;BME280;21134;49.646;8.560;2022-09-25T09:30:00;100224.66;;;14.25;99.79
34931;BME280;21134;49.646;8.560;2022-09-25T09:32:40;100227.03;;;14.36;99.45
34931;BME280;21134;49.646;8.560;2022-09-25T09:35:16;100229.44;;;14.42;98.70
34931;BME280;21134;49.646;8.560;2022-09-25T09:37:54;100223.31;;;14.48;97.87
34931;BME280;21134;49.646;8.560;2022-09-25T09:40:47;100225.88;;;14.49;98.63
34931;BME280;21134;49.646;8.560;2022-09-25T09:43:31;100224.78;;;14.61;97.40
34931;BME280;21134;49.646;8.560;2022-09-25T09:46:05;100218.00;;;14.58;97.90
34931;BME280;21134;49.646;8.560;2022-09-25T09:48:47;100225.91;;;14.48;100.00
34931;BME280;21134;49.646;8.560;2022-09-25T09:51:20;100220.81;;;14.46;99.52
34931;BME280;21134;49.646;8.560;2022-09-25T09:53:49;100220.53;;;14.60;97.37
34931;BME280;21134;49.646;8.560;2022-09-25T09:56:19;100227.09;;;14.73;95.37
34931;BME280;21134;49.646;8.560;2022-09-25T09:58:49;100230.50;;;14.75;94.70
34931;BME280;21134;49.646;8.560;2022-09-25T10:01:20;100227.66;;;14.86;94.09
34931;BME280;21134;49.646;8.560;2022-09-25T10:03:49;100227.66;;;14.86;94.26
34931;BME280;21134;49.646;8.560;2022-09-25T10:06:22;100232.50;;;14.62;95.21
34931;BME280;21134;49.646;8.560;2022-09-25T10:08:50;100232.44;;;14.65;95.52
34931;BME280;21134;49.646;8.560;2022-09-25T10:11:18;100227.13;;;14.72;94.76
34931;BME280;21134;49.646;8.560;2022-09-25T10:13:45;100220.38;;;14.66;96.45
34931;BME280;21134;49.646;8.560;2022-09-25T10:16:16;100214.75;;;14.87;95.88
34931;BME280;21134;49.646;8.560;2022-09-25T10:18:46;100219.38;;;15.10;94.87
34931;BME280;21134;49.646;8.560;2022-09-25T10:21:16;100219.16;;;15.18;94.90
34931;BME280;21134;49.646;8.560;2022-09-25T10:23:47;100209.25;;;15.37;93.16
34931;BME280;21134;49.646;8.560;2022-09-25T10:26:25;100206.50;;;15.45;93.64
34931;BME280;21134;49.646;8.560;2022-09-25T10:28:53;100208.19;;;15.46;92.91
34931;BME280;21134;49.646;8.560;2022-09-25T10:31:24;100208.06;;;15.16;93.15
34931;BME280;21134;49.646;8.560;2022-09-25T10:34:04;100202.94;;;15.49;92.19
34931;BME280;21134;49.646;8.560;2022-09-25T10:36:41;100206.28;;;15.52;92.65
34931;BME280;21134;49.646;8.560;2022-09-25T10:39:30;100203.94;;;15.43;90.88
34931;BME280;21134;49.646;8.560;2022-09-25T10:41:57;100209.63;;;15.56;92.96
34931;BME280;21134;49.646;8.560;2022-09-25T10:44:29;100211.97;;;15.65;93.04
34931;BME280;21134;49.646;8.560;2022-09-25T10:47:28;100217.97;;;15.67;91.21
34931;BME280;21134;49.646;8.560;2022-09-25T10:50:16;100210.19;;;15.69;91.22
34931;BME280;21134;49.646;8.560;2022-09-25T10:52:45;100217.25;;;15.61;91.62
34931;BME280;21134;49.646;8.560;2022-09-25T10:55:20;100221.44;;;15.65;89.59
34931;BME280;21134;49.646;8.560;2022-09-25T10:57:54;100223.84;;;15.38;89.77
34931;BME280;21134;49.646;8.560;2022-09-25T11:00:24;100224.19;;;15.58;89.62
34931;BME280;21134;49.646;8.560;2022-09-25T11:02:54;100228.00;;;15.44;89.52
34931;BME280;21134;49.646;8.560;2022-09-25T11:05:26;100227.88;;;15.48;91.21
34931;BME280;21134;49.646;8.560;2022-09-25T11:07:56;100228.69;;;15.50;91.49
34931;BME280;21134;49.646;8.560;2022-09-25T11:10:25;100220.94;;;15.50;90.77
34931;BME280;21134;49.646;8.560;2022-09-25T11:12:53;100221.53;;;15.62;91.06
34931;BME280;21134;49.646;8.560;2022-09-25T11:15:22;100221.34;;;15.35;91.67
34931;BME280;21134;49.646;8.560;2022-09-25T11:17:53;100224.41;;;15.51;90.52
34931;BME280;21134;49.646;8.560;2022-09-25T11:20:24;100219.53;;;15.39;90.27
34931;BME280;21134;49.646;8.560;2022-09-25T11:23:06;100224.34;;;15.52;89.29
34931;BME280;21134;49.646;8.560;2022-09-25T11:25:44;100217.97;;;15.67;87.62
34931;BME280;21134;49.646;8.560;2022-09-25T11:28:27;100225.38;;;15.45;89.95
34931;BME280;21134;49.646;8.560;2022-09-25T11:30:59;100218.19;;;15.58;90.04
34931;BME280;21134;49.646;8.560;2022-09-25T11:33:36;100213.13;;;15.53;91.19
34931;BME280;21134;49.646;8.560;2022-09-25T11:36:09;100206.75;;;15.70;90.40
34931;BME280;21134;49.646;8.560;2022-09-25T11:38:43;100217.09;;;15.68;90.53
34931;BME280;21134;49.646;8.560;2022-09-25T11:41:41;100211.91;;;15.70;90.66
34931;BME280;21134;49.646;8.560;2022-09-25T11:44:17;100212.75;;;15.70;89.92
34931;BME280;21134;49.646;8.560;2022-09-25T11:46:51;100215.41;;;15.67;90.94
34931;BME280;21134;49.646;8.560;2022-09-25T11:49:22;100207.41;;;15.76;89.77
34931;BME280;21134;49.646;8.560;2022-09-25T11:52:19;100211.16;;;15.63;89.48
34931;BME280;21134;49.646;8.560;2022-09-25T11:54:58;100207.59;;;15.69;89.67
34931;BME280;21134;49.646;8.560;2022-09-25T11:57:35;100209.63;;;15.90;86.34
34931;BME280;21134;49.646;8.560;2022-09-25T12:00:08;100208.25;;;15.77;89.31
34931;BME280;21134;49.646;8.560;2022-09-25T12:02:51;100209.44;;;15.64;88.74
34931;BME280;21134;49.646;8.560;2022-09-25T12:05:35;100206.81;;;15.65;89.47
34931;BME280;21134;49.646;8.560;2022-09-25T12:08:17;100197.56;;;15.58;90.43
34931;BME280;21134;49.646;8.560;2022-09-25T12:10:53;100198.53;;;15.87;87.80
34931;BME280;21134;49.646;8.560;2022-09-25T12:13:27;100200.63;;;15.72;89.41
34931;BME280;21134;49.646;8.560;2022-09-25T12:16:05;100204.16;;;15.70;89.84
34931;BME280;21134;49.646;8.560;2022-09-25T12:18:50;100202.19;;;15.45;90.56
34931;BME280;21134;49.646;8.560;2022-09-25T12:21:25;100201.41;;;15.42;91.20
34931;BME280;21134;49.646;8.560;2022-09-25T12:24:02;100191.09;;;15.42;91.96
34931;BME280;21134;49.646;8.560;2022-09-25T12:26:40;100200.28;;;15.52;91.34
34931;BME280;21134;49.646;8.560;2022-09-25T12:29:17;100194.97;;;15.58;91.65
34931;BME280;21134;49.646;8.560;2022-09-25T12:31:55;100198.53;;;15.54;90.81
34931;BME280;21134;49.646;8.560;2022-09-25T12:34:34;100212.66;;;15.39;91.88
34931;BME280;21134;49.646;8.560;2022-09-25T12:37:16;100207.03;;;15.23;91.63
34931;BME280;21134;49.646;8.560;2022-09-25T12:39:49;100210.53;;;15.21;91.12
34931;BME280;21134;49.646;8.560;2022-09-25T12:42:20;100212.69;;;15.03;92.08
34931;BME280;21134;49.646;8.560;2022-09-25T12:44:53;100210.41;;;14.89;93.65
34931;BME280;21134;49.646;8.560;2022-09-25T12:47:25;100217.28;;;14.91;92.55
34931;BME280;21134;49.646;8.560;2022-09-25T12:50:01;100208.66;;;14.92;92.04
34931;BME280;21134;49.646;8.560;2022-09-25T12:52:35;100203.63;;;14.87;93.90
34931;BME280;21134;49.646;8.560;2022-09-25T12:55:07;100208.44;;;15.01;93.21
34931;BME280;21134;49.646;8.560;2022-09-25T12:57:40;100205.50;;;15.15;93.21
34931;BME280;21134;49.646;8.560;2022-09-25T13:00:16;100200.44;;;15.11;91.05
34931;BME280;21134;49.646;8.560;2022-09-25T13:02:50;100205.22;;;15.27;91.13